sensor_id;sensor_type;location;lat;lon;timestamp;pressure;altitude;pressure_sealevel;temperature;humidity
41712;BME280;27399;51.516;13.670;2023-03-22T00:01:32;100211.16;;;12.76;93.08
41712;BME280;27399;51.516;13.670;2023-03-22T00:03:59;100196.81;;;12.79;92.85
41712;BME280;27399;51.516;13.670;2023-03-22T00:06:25;100191.47;;;12.79;92.57
41712;BME280;27399;51.516;13.670;2023-03-22T00:08:52;100203.81;;;12.86;91.98
41712;BME280;27399;51.516;13.670;2023-03-22T00:11:22;100188.38;;;12.55;94.77
41712;BME280;27399;51.516;13.670;2023-03-22T00:13:51;100186.66;;;12.52;94.95
41712;BME280;27399;51.516;13.670;2023-03-22T00:16:18;100196.16;;;12.67;93.15
41712;BME280;27399;51.516;13.670;2023-03-22T00:18:44;100195.25;;;12.68;93.15
41712;BME280;27399;51.516;13.670;2023-03-22T00:21:15;100192.53;;;12.70;93.78
41712;BME280;27399;51.516;13.670;2023-03-22T00:23:41;100187.63;;;12.50;94.92
41712;BME280;27399;51.516;13.670;2023-03-22T00:26:08;100189.03;;;12.68;92.98
41712;BME280;27399;51.516;13.670;2023-03-22T00:28:35;100184.59;;;12.67;93.28
41712;BME280;27399;51.516;13.670;2023-03-22T00:31:01;100185.38;;;12.72;92.40
41712;BME280;27399;51.516;13.670;2023-03-22T00:33:28;100187.03;;;12.78;92.25
41712;BME280;27399;51.516;13.670;2023-03-22T00:36:00;100179.09;;;12.75;91.81
41712;BME280;27399;51.516;13.670;2023-03-22T00:38:26;100182.69;;;12.74;91.72
41712;BME280;27399;51.516;13.670;2023-03-22T00:41:16;100182.69;;;12.74;91.64
41712;BME280;27399;51.516;13.670;2023-03-22T00:43:42;100184.59;;;12.67;92.28
41712;BME280;27399;51.516;13.670;2023-03-22T00:46:09;100179.34;;;12.61;92.14
41712;BME280;27399;51.516;13.670;2023-03-22T00:48:35;100174.91;;;12.61;91.69
41712;BME280;27399;51.516;13.670;2023-03-22T00:51:01;100180.41;;;12.53;91.37
41712;BME280;27399;51.516;13.670;2023-03-22T00:53:27;100176.00;;;12.51;90.87
41712;BME280;27399;51.516;13.670;2023-03-22T00:55:56;100177.06;;;12.42;91.00
41712;BME280;27399;51.516;13.670;2023-03-22T00:58:21;100179.69;;;12.44;90.59
41712;BME280;27399;51.516;13.670;2023-03-22T01:00:47;100165.78;;;12.26;90.43
41712;BME280;27399;51.516;13.670;2023-03-22T01:03:13;100180.97;;;12.26;90.46
41712;BME280;27399;51.516;13.670;2023-03-22T01:05:40;100174.09;;;12.12;90.65
41712;BME280;27399;51.516;13.670;2023-03-22T01:08:09;100177.38;;;12.27;90.47
41712;BME280;27399;51.516;13.670;2023-03-22T01:10:36;100179.34;;;12.17;90.04
41712;BME280;27399;51.516;13.670;2023-03-22T01:13:02;100177.03;;;11.95;90.13
41712;BME280;27399;51.516;13.670;2023-03-22T01:15:28;100170.47;;;12.16;90.69
41712;BME280;27399;51.516;13.670;2023-03-22T01:17:54;100166.25;;;12.01;91.28
41712;BME280;27399;51.516;13.670;2023-03-22T01:20:19;100167.28;;;11.92;89.83
41712;BME280;27399;51.516;13.670;2023-03-22T01:22:45;100165.53;;;11.91;90.92
41712;BME280;27399;51.516;13.670;2023-03-22T01:25:11;100163.75;;;11.90;90.71
41712;BME280;27399;51.516;13.670;2023-03-22T01:27:37;100161.09;;;11.90;90.05
41712;BME280;27399;51.516;13.670;2023-03-22T01:30:04;100149.09;;;11.63;89.06
41712;BME280;27399;51.516;13.670;2023-03-22T01:32:30;100147.25;;;11.67;90.03
41712;BME280;27399;51.516;13.670;2023-03-22T01:34:56;100144.78;;;11.56;90.06
41712;BME280;27399;51.516;13.670;2023-03-22T01:37:22;100147.38;;;11.60;90.17
41712;BME280;27399;51.516;13.670;2023-03-22T01:39:49;100139.59;;;11.45;88.36
41712;BME280;27399;51.516;13.670;2023-03-22T01:42:15;100135.88;;;11.55;88.46
41712;BME280;27399;51.516;13.670;2023-03-22T01:44:42;100134.31;;;11.42;89.07
41712;BME280;27399;51.516;13.670;2023-03-22T01:47:11;100137.00;;;11.40;89.10
41712;BME280;27399;51.516;13.670;2023-03-22T01:49:38;100135.31;;;11.36;88.00
41712;BME280;27399;51.516;13.670;2023-03-22T01:52:12;100139.03;;;11.26;87.29
41712;BME280;27399;51.516;13.670;2023-03-22T01:54:49;100130.16;;;11.22;87.37
41712;BME280;27399;51.516;13.670;2023-03-22T01:57:17;100134.81;;;11.09;88.35
41712;BME280;27399;51.516;13.670;2023-03-22T01:59:43;100124.25;;;11.01;87.67
41712;BME280;27399;51.516;13.670;2023-03-22T02:02:10;100123.34;;;11.03;88.34
41712;BME280;27399;51.516;13.670;2023-03-22T02:04:39;100137.81;;;10.89;87.37
41712;BME280;27399;51.516;13.670;2023-03-22T02:07:08;100137.75;;;10.92;87.77
41712;BME280;27399;51.516;13.670;2023-03-22T02:09:40;100139.69;;;10.82;87.36
41712;BME280;27399;51.516;13.670;2023-03-22T02:14:52;100130.03;;;10.70;87.87
41712;BME280;27399;51.516;13.670;2023-03-22T02:36:59;100108.34;;;10.28;88.18
41712;BME280;27399;51.516;13.670;2023-03-22T02:39:43;100110.00;;;10.40;87.86
41712;BME280;27399;51.516;13.670;2023-03-22T02:42:36;100109.16;;;10.36;86.80
41712;BME280;27399;51.516;13.670;2023-03-22T02:47:55;100108.38;;;10.23;86.04
41712;BME280;27399;51.516;13.670;2023-03-22T02:55:52;100090.03;;;9.97;86.17
41712;BME280;27399;51.516;13.670;2023-03-22T02:58:24;100103.38;;;9.99;86.71
41712;BME280;27399;51.516;13.670;2023-03-22T03:00:54;100102.34;;;10.11;86.97
41712;BME280;27399;51.516;13.670;2023-03-22T03:03:22;100105.88;;;10.11;86.25
41712;BME280;27399;51.516;13.670;2023-03-22T03:05:56;100104.13;;;10.08;86.14
41712;BME280;27399;51.516;13.670;2023-03-22T03:08:24;100113.28;;;9.84;86.06
41712;BME280;27399;51.516;13.670;2023-03-22T03:10:52;100108.75;;;9.92;86.26
41712;BME280;27399;51.516;13.670;2023-03-22T03:13:19;100109.66;;;9.93;86.10
41712;BME280;27399;51.516;13.670;2023-03-22T03:15:51;100102.56;;;9.89;86.04
41712;BME280;27399;51.516;13.670;2023-03-22T03:21:02;100099.09;;;9.84;86.07
41712;BME280;27399;51.516;13.670;2023-03-22T03:23:49;100115.00;;;9.90;85.87
41712;BME280;27399;51.516;13.670;2023-03-22T03:26:47;100112.41;;;9.82;85.77
41712;BME280;27399;51.516;13.670;2023-03-22T03:29:38;100113.34;;;9.76;85.95
41712;BME280;27399;51.516;13.670;2023-03-22T03:32:33;100109.91;;;9.65;86.03
41712;BME280;27399;51.516;13.670;2023-03-22T03:35:04;100113.50;;;9.63;86.55
41712;BME280;27399;51.516;13.670;2023-03-22T03:37:44;100112.63;;;9.60;86.50
41712;BME280;27399;51.516;13.670;2023-03-22T03:40:16;100118.78;;;9.67;86.45
41712;BME280;27399;51.516;13.670;2023-03-22T03:42:47;100118.78;;;9.67;86.73
41712;BME280;27399;51.516;13.670;2023-03-22T03:45:15;100112.66;;;9.56;86.80
41712;BME280;27399;51.516;13.670;2023-03-22T03:47:43;100116.19;;;9.61;86.77
41712;BME280;27399;51.516;13.670;2023-03-22T03:50:10;100124.31;;;9.44;86.28
41712;BME280;27399;51.516;13.670;2023-03-22T03:52:37;100111.84;;;9.48;86.02
41712;BME280;27399;51.516;13.670;2023-03-22T03:55:03;100115.47;;;9.39;85.77
41712;BME280;27399;51.516;13.670;2023-03-22T03:57:29;100118.06;;;9.46;85.82
41712;BME280;27399;51.516;13.670;2023-03-22T03:59:54;100118.97;;;9.42;85.99
41712;BME280;27399;51.516;13.670;2023-03-22T04:02:20;100117.19;;;9.44;86.33
41712;BME280;27399;51.516;13.670;2023-03-22T04:04:45;100116.34;;;9.44;85.88
41712;BME280;27399;51.516;13.670;2023-03-22T04:07:11;100107.53;;;9.36;85.85
41712;BME280;27399;51.516;13.670;2023-03-22T04:09:38;100102.22;;;9.33;86.44
41712;BME280;27399;51.516;13.670;2023-03-22T04:12:04;100114.69;;;9.27;85.98
41712;BME280;27399;51.516;13.670;2023-03-22T04:14:30;100110.94;;;9.50;86.07
41712;BME280;27399;51.516;13.670;2023-03-22T04:16:56;100118.09;;;9.43;85.97
41712;BME280;27399;51.516;13.670;2023-03-22T04:19:22;100117.19;;;9.48;86.51
41712;BME280;27399;51.516;13.670;2023-03-22T04:21:48;100118.06;;;9.50;86.11
41712;BME280;27399;51.516;13.670;2023-03-22T04:24:13;100114.59;;;9.41;86.79
41712;BME280;27399;51.516;13.670;2023-03-22T04:26:40;100111.94;;;9.38;86.89
41712;BME280;27399;51.516;13.670;2023-03-22T04:29:05;100112.88;;;9.36;86.89
41712;BME280;27399;51.516;13.670;2023-03-22T04:31:32;100114.56;;;9.43;86.59
41712;BME280;27399;51.516;13.670;2023-03-22T04:33:59;100108.28;;;9.50;86.29
41712;BME280;27399;51.516;13.670;2023-03-22T04:36:30;100111.03;;;9.41;86.41
41712;BME280;27399;51.516;13.670;2023-03-22T04:39:05;100104.00;;;9.34;86.81
41712;BME280;27399;51.516;13.670;2023-03-22T04:41:32;100099.47;;;9.43;86.95
41712;BME280;27399;51.516;13.670;2023-03-22T04:43:57;100107.63;;;9.23;86.25
41712;BME280;27399;51.516;13.670;2023-03-22T04:46:27;100097.69;;;9.44;86.45
41712;BME280;27399;51.516;13.670;2023-03-22T04:48:53;100103.09;;;9.33;86.96
41712;BME280;27399;51.516;13.670;2023-03-22T04:51:19;100099.53;;;9.37;87.40
41712;BME280;27399;51.516;13.670;2023-03-22T04:53:44;100103.97;;;9.38;87.40
41712;BME280;27399;51.516;13.670;2023-03-22T04:56:12;100097.78;;;9.33;88.18
41712;BME280;27399;51.516;13.670;2023-03-22T04:58:39;100082.63;;;9.43;87.49
41712;BME280;27399;51.516;13.670;2023-03-22T05:01:07;100095.91;;;9.44;87.74
41712;BME280;27399;51.516;13.670;2023-03-22T05:03:33;100100.34;;;9.42;87.69
41712;BME280;27399;51.516;13.670;2023-03-22T05:06:00;100087.97;;;9.41;87.31
41712;BME280;27399;51.516;13.670;2023-03-22T05:08:27;100104.03;;;9.29;88.35
41712;BME280;27399;51.516;13.670;2023-03-22T05:10:56;100090.66;;;9.38;88.44
41712;BME280;27399;51.516;13.670;2023-03-22T05:13:26;100094.94;;;9.53;87.76
41712;BME280;27399;51.516;13.670;2023-03-22T05:15:52;100096.75;;;9.50;87.85
41712;BME280;27399;51.516;13.670;2023-03-22T05:18:19;100094.25;;;9.33;88.61
41712;BME280;27399;51.516;13.670;2023-03-22T05:20:46;100099.41;;;9.48;88.04
41712;BME280;27399;51.516;13.670;2023-03-22T05:23:15;100099.44;;;9.50;88.61
41712;BME280;27399;51.516;13.670;2023-03-22T05:25:44;100094.91;;;9.58;88.19
41712;BME280;27399;51.516;13.670;2023-03-22T05:28:11;100094.00;;;9.59;88.55
41712;BME280;27399;51.516;13.670;2023-03-22T05:30:42;100089.56;;;9.61;88.26
41712;BME280;27399;51.516;13.670;2023-03-22T05:33:08;100093.88;;;9.71;88.49
41712;BME280;27399;51.516;13.670;2023-03-22T05:35:36;100078.84;;;9.66;88.57
41712;BME280;27399;51.516;13.670;2023-03-22T05:38:03;100096.50;;;9.76;88.61
41712;BME280;27399;51.516;13.670;2023-03-22T05:40:28;100090.25;;;9.79;88.60
41712;BME280;27399;51.516;13.670;2023-03-22T05:42:54;100084.06;;;9.78;88.84
41712;BME280;27399;51.516;13.670;2023-03-22T05:45:21;100093.03;;;9.69;89.11
41712;BME280;27399;51.516;13.670;2023-03-22T05:47:47;100089.44;;;9.72;89.56
41712;BME280;27399;51.516;13.670;2023-03-22T05:50:16;100091.09;;;9.84;89.39
41712;BME280;27399;51.516;13.670;2023-03-22T05:52:42;100090.06;;;9.96;89.03
41712;BME280;27399;51.516;13.670;2023-03-22T05:55:09;100082.13;;;9.89;90.15
41712;BME280;27399;51.516;13.670;2023-03-22T05:57:39;100081.19;;;9.97;89.95
41712;BME280;27399;51.516;13.670;2023-03-22T06:00:07;100081.97;;;10.05;89.95
41712;BME280;27399;51.516;13.670;2023-03-22T06:02:38;100082.78;;;10.12;89.79
41712;BME280;27399;51.516;13.670;2023-03-22T06:05:07;100077.47;;;10.10;90.27
41712;BME280;27399;51.516;13.670;2023-03-22T06:07:35;100074.84;;;10.05;90.56
41712;BME280;27399;51.516;13.670;2023-03-22T06:10:01;100079.25;;;10.10;91.10
41712;BME280;27399;51.516;13.670;2023-03-22T06:12:27;100077.38;;;10.19;90.96
41712;BME280;27399;51.516;13.670;2023-03-22T06:14:52;100072.84;;;10.26;90.60
41712;BME280;27399;51.516;13.670;2023-03-22T06:17:18;100077.25;;;10.27;91.11
41712;BME280;27399;51.516;13.670;2023-03-22T06:19:44;100075.44;;;10.29;91.38
41712;BME280;27399;51.516;13.670;2023-03-22T06:22:10;100072.81;;;10.28;91.79
41712;BME280;27399;51.516;13.670;2023-03-22T06:24:35;100078.03;;;10.37;91.31
41712;BME280;27399;51.516;13.670;2023-03-22T06:27:01;100082.50;;;10.36;91.60
41712;BME280;27399;51.516;13.670;2023-03-22T06:29:27;100080.56;;;10.48;90.93
41712;BME280;27399;51.516;13.670;2023-03-22T06:31:52;100083.31;;;10.42;92.47
41712;BME280;27399;51.516;13.670;2023-03-22T06:34:18;100084.13;;;10.48;91.08
41712;BME280;27399;51.516;13.670;2023-03-22T06:36:44;100094.81;;;10.47;91.47
41712;BME280;27399;51.516;13.670;2023-03-22T06:39:09;100088.50;;;10.54;90.75
41712;BME280;27399;51.516;13.670;2023-03-22T06:41:35;100089.41;;;10.53;92.15
41712;BME280;27399;51.516;13.670;2023-03-22T06:44:01;100086.50;;;10.70;91.36
41712;BME280;27399;51.516;13.670;2023-03-22T06:46:27;100088.25;;;10.69;91.97
41712;BME280;27399;51.516;13.670;2023-03-22T06:48:52;100086.53;;;10.67;92.43
41712;BME280;27399;51.516;13.670;2023-03-22T06:51:18;100096.16;;;10.79;90.85
41712;BME280;27399;51.516;13.670;2023-03-22T06:53:44;100086.47;;;10.73;92.21
41712;BME280;27399;51.516;13.670;2023-03-22T06:56:10;100094.19;;;10.90;90.72
41712;BME280;27399;51.516;13.670;2023-03-22T06:58:36;100092.50;;;10.86;90.23
41712;BME280;27399;51.516;13.670;2023-03-22T07:01:02;100094.03;;;11.01;89.19
41712;BME280;27399;51.516;13.670;2023-03-22T07:03:28;100086.88;;;11.05;89.67
41712;BME280;27399;51.516;13.670;2023-03-22T07:06:04;100092.25;;;11.01;92.13
41712;BME280;27399;51.516;13.670;2023-03-22T07:08:30;100093.88;;;11.10;91.79
41712;BME280;27399;51.516;13.670;2023-03-22T07:10:56;100098.28;;;11.14;92.02
41712;BME280;27399;51.516;13.670;2023-03-22T07:13:22;100096.41;;;11.21;90.47
41712;BME280;27399;51.516;13.670;2023-03-22T07:15:47;100092.91;;;11.16;90.68
41712;BME280;27399;51.516;13.670;2023-03-22T07:18:13;100087.41;;;11.25;90.45
41712;BME280;27399;51.516;13.670;2023-03-22T07:20:39;100089.38;;;11.14;90.17
41712;BME280;27399;51.516;13.670;2023-03-22T07:23:08;100094.53;;;11.26;89.65
41712;BME280;27399;51.516;13.670;2023-03-22T07:25:35;100100.44;;;11.44;89.54
41712;BME280;27399;51.516;13.670;2023-03-22T07:28:00;100086.28;;;11.40;89.49
41712;BME280;27399;51.516;13.670;2023-03-22T07:30:26;100094.00;;;11.57;89.18
41712;BME280;27399;51.516;13.670;2023-03-22T07:32:51;100099.63;;;11.42;88.94
41712;BME280;27399;51.516;13.670;2023-03-22T07:35:17;100091.31;;;11.57;88.24
41712;BME280;27399;51.516;13.670;2023-03-22T07:37:43;100087.31;;;11.83;87.87
41712;BME280;27399;51.516;13.670;2023-03-22T07:40:10;100081.81;;;11.89;88.37
41712;BME280;27399;51.516;13.670;2023-03-22T07:42:36;100081.88;;;11.88;87.76
41712;BME280;27399;51.516;13.670;2023-03-22T07:45:02;100081.88;;;11.86;87.24
41712;BME280;27399;51.516;13.670;2023-03-22T07:47:28;100083.53;;;11.93;86.45
41712;BME280;27399;51.516;13.670;2023-03-22T07:49:54;100079.91;;;11.98;86.00
41712;BME280;27399;51.516;13.670;2023-03-22T07:52:19;100079.81;;;12.04;86.46
41712;BME280;27399;51.516;13.670;2023-03-22T07:54:45;100088.59;;;12.09;85.74
41712;BME280;27399;51.516;13.670;2023-03-22T07:57:11;100085.25;;;11.99;85.01
41712;BME280;27399;51.516;13.670;2023-03-22T07:59:36;100090.97;;;12.23;84.95
41712;BME280;27399;51.516;13.670;2023-03-22T08:02:02;100090.97;;;12.24;84.57
41712;BME280;27399;51.516;13.670;2023-03-22T08:04:28;100087.50;;;12.21;84.63
41712;BME280;27399;51.516;13.670;2023-03-22T08:06:55;100083.66;;;12.33;84.28
41712;BME280;27399;51.516;13.670;2023-03-22T08:09:24;100087.13;;;12.38;83.44
41712;BME280;27399;51.516;13.670;2023-03-22T08:11:50;100083.69;;;12.74;83.38
41712;BME280;27399;51.516;13.670;2023-03-22T08:14:16;100082.41;;;12.51;83.08
41712;BME280;27399;51.516;13.670;2023-03-22T08:16:41;100080.28;;;12.65;82.78
41712;BME280;27399;51.516;13.670;2023-03-22T08:19:12;100082.28;;;12.55;82.69
41712;BME280;27399;51.516;13.670;2023-03-22T08:21:37;100080.03;;;12.76;82.63
41712;BME280;27399;51.516;13.670;2023-03-22T08:24:04;100074.69;;;12.76;82.43
41712;BME280;27399;51.516;13.670;2023-03-22T08:26:30;100078.44;;;12.67;82.36
41712;BME280;27399;51.516;13.670;2023-03-22T08:28:56;100078.00;;;12.88;82.75
41712;BME280;27399;51.516;13.670;2023-03-22T08:31:21;100081.44;;;12.93;82.58
41712;BME280;27399;51.516;13.670;2023-03-22T08:33:47;100070.78;;;12.91;82.04
41712;BME280;27399;51.516;13.670;2023-03-22T08:36:16;100075.31;;;12.88;82.12
41712;BME280;27399;51.516;13.670;2023-03-22T08:38:42;100076.31;;;12.83;82.31
41712;BME280;27399;51.516;13.670;2023-03-22T08:41:10;100067.75;;;13.07;81.53
41712;BME280;27399;51.516;13.670;2023-03-22T08:43:36;100068.31;;;13.20;82.45
41712;BME280;27399;51.516;13.670;2023-03-22T08:46:02;100074.81;;;13.08;81.61
41712;BME280;27399;51.516;13.670;2023-03-22T08:48:27;100065.34;;;13.30;81.33
41712;BME280;27399;51.516;13.670;2023-03-22T08:50:55;100060.78;;;13.34;81.01
41712;BME280;27399;51.516;13.670;2023-03-22T08:53:21;100058.91;;;13.39;81.13
41712;BME280;27399;51.516;13.670;2023-03-22T08:55:50;100061.34;;;13.48;81.32
41712;BME280;27399;51.516;13.670;2023-03-22T08:58:16;100067.47;;;13.54;80.72
41712;BME280;27399;51.516;13.670;2023-03-22T09:00:45;100054.75;;;13.62;81.37
41712;BME280;27399;51.516;13.670;2023-03-22T09:03:11;100051.09;;;13.64;79.55
41712;BME280;27399;51.516;13.670;2023-03-22T09:05:37;100058.44;;;13.58;78.93
41712;BME280;27399;51.516;13.670;2023-03-22T09:08:02;100058.16;;;13.67;79.36
41712;BME280;27399;51.516;13.670;2023-03-22T09:10:30;100056.72;;;13.88;80.13
41712;BME280;27399;51.516;13.670;2023-03-22T09:12:56;100057.19;;;13.71;78.27
41712;BME280;27399;51.516;13.670;2023-03-22T09:15:22;100052.28;;;13.87;79.00
41712;BME280;27399;51.516;13.670;2023-03-22T09:17:47;100062.47;;;13.74;78.70
41712;BME280;27399;51.516;13.670;2023-03-22T09:20:13;100047.13;;;13.79;78.14
41712;BME280;27399;51.516;13.670;2023-03-22T09:22:39;100047.22;;;14.08;78.57
41712;BME280;27399;51.516;13.670;2023-03-22T09:25:05;100050.19;;;13.97;77.53
41712;BME280;27399;51.516;13.670;2023-03-22T09:27:31;100044.34;;;14.14;77.95
41712;BME280;27399;51.516;13.670;2023-03-22T09:29:57;100057.97;;;13.75;76.71
41712;BME280;27399;51.516;13.670;2023-03-22T09:32:23;100061.03;;;13.94;77.16
41712;BME280;27399;51.516;13.670;2023-03-22T09:34:49;100050.13;;;14.00;76.56
41712;BME280;27399;51.516;13.670;2023-03-22T09:37:14;100054.88;;;13.90;77.27
41712;BME280;27399;51.516;13.670;2023-03-22T09:39:40;100043.25;;;13.91;77.02
41712;BME280;27399;51.516;13.670;2023-03-22T09:44:48;100036.22;;;14.17;76.73
41712;BME280;27399;51.516;13.670;2023-03-22T09:47:18;100019.28;;;14.17;76.92
41712;BME280;27399;51.516;13.670;2023-03-22T09:49:49;100018.56;;;14.40;77.05
41712;BME280;27399;51.516;13.670;2023-03-22T09:52:20;100023.88;;;14.41;76.38
41712;BME280;27399;51.516;13.670;2023-03-22T09:54:46;100021.44;;;14.62;76.42
41712;BME280;27399;51.516;13.670;2023-03-22T10:10:41;100015.38;;;15.12;72.20
41712;BME280;27399;51.516;13.670;2023-03-22T10:13:31;99996.41;;;15.44;72.57
41712;BME280;27399;51.516;13.670;2023-03-22T10:16:03;100000.22;;;15.37;72.57
41712;BME280;27399;51.516;13.670;2023-03-22T10:18:44;99998.31;;;15.65;73.28
41712;BME280;27399;51.516;13.670;2023-03-22T10:21:12;100001.28;;;15.58;73.19
41712;BME280;27399;51.516;13.670;2023-03-22T10:23:49;99987.72;;;15.61;71.72
41712;BME280;27399;51.516;13.670;2023-03-22T10:26:26;99988.00;;;15.78;73.46
41712;BME280;27399;51.516;13.670;2023-03-22T10:29:02;99987.22;;;15.75;71.30
41712;BME280;27399;51.516;13.670;2023-03-22T10:31:29;99976.81;;;15.91;71.78
41712;BME280;27399;51.516;13.670;2023-03-22T10:34:02;99979.50;;;15.91;70.54
41712;BME280;27399;51.516;13.670;2023-03-22T10:36:33;99973.88;;;15.97;70.83
41712;BME280;27399;51.516;13.670;2023-03-22T10:39:03;99974.78;;;15.98;71.03
41712;BME280;27399;51.516;13.670;2023-03-22T10:41:32;99979.47;;;16.15;70.67
41712;BME280;27399;51.516;13.670;2023-03-22T10:44:01;99965.31;;;15.87;68.95
41712;BME280;27399;51.516;13.670;2023-03-22T10:46:35;99959.84;;;16.13;69.03
41712;BME280;27399;51.516;13.670;2023-03-22T10:49:02;99955.59;;;16.29;69.34
41712;BME280;27399;51.516;13.670;2023-03-22T10:51:42;99945.59;;;16.33;68.76
41712;BME280;27399;51.516;13.670;2023-03-22T10:54:14;99949.88;;;16.15;67.21
41712;BME280;27399;51.516;13.670;2023-03-22T10:56:41;99959.59;;;16.41;66.98
41712;BME280;27399;51.516;13.670;2023-03-22T10:59:07;99955.53;;;16.31;66.76
41712;BME280;27399;51.516;13.670;2023-03-22T11:01:43;99942.00;;;16.56;66.94
41712;BME280;27399;51.516;13.670;2023-03-22T11:04:12;99946.75;;;16.49;66.45
41712;BME280;27399;51.516;13.670;2023-03-22T11:06:48;99938.47;;;16.54;66.15
41712;BME280;27399;51.516;13.670;2023-03-22T11:09:18;99936.28;;;16.64;65.93
41712;BME280;27399;51.516;13.670;2023-03-22T11:14:15;99920.56;;;16.97;66.16
41712;BME280;27399;51.516;13.670;2023-03-22T11:16:52;99925.22;;;16.92;65.58
41712;BME280;27399;51.516;13.670;2023-03-22T11:19:30;99930.25;;;16.79;65.53
41712;BME280;27399;51.516;13.670;2023-03-22T11:21:57;99921.38;;;16.77;64.77
41712;BME280;27399;51.516;13.670;2023-03-22T11:24:24;99917.88;;;16.97;64.52
41712;BME280;27399;51.516;13.670;2023-03-22T11:29:44;99920.03;;;16.87;65.21
41712;BME280;27399;51.516;13.670;2023-03-22T11:32:20;99904.41;;;16.97;65.42
41712;BME280;27399;51.516;13.670;2023-03-22T11:34:46;99910.09;;;17.31;64.83
41712;BME280;27399;51.516;13.670;2023-03-22T11:37:16;99903.56;;;17.37;64.31
41712;BME280;27399;51.516;13.670;2023-03-22T11:39:46;99898.44;;;17.30;63.53
41712;BME280;27399;51.516;13.670;2023-03-22T11:42:20;99890.69;;;17.43;62.96
41712;BME280;27399;51.516;13.670;2023-03-22T11:44:46;99895.59;;;17.33;62.42
41712;BME280;27399;51.516;13.670;2023-03-22T11:47:12;99889.75;;;17.44;62.40
41712;BME280;27399;51.516;13.670;2023-03-22T11:49:46;99886.19;;;17.63;62.65
41712;BME280;27399;51.516;13.670;2023-03-22T11:52:18;99886.06;;;17.66;61.52
41712;BME280;27399;51.516;13.670;2023-03-22T11:54:47;99894.19;;;17.45;61.87
41712;BME280;27399;51.516;13.670;2023-03-22T11:57:15;99903.88;;;17.49;61.91
41712;BME280;27399;51.516;13.670;2023-03-22T12:00:34;99884.06;;;17.50;62.63
41712;BME280;27399;51.516;13.670;2023-03-22T12:02:48;99870.88;;;17.44;62.26
41712;BME280;27399;51.516;13.670;2023-03-22T12:05:22;99880.13;;;17.39;61.65
41712;BME280;27399;51.516;13.670;2023-03-22T12:07:59;99893.19;;;17.27;61.86
41712;BME280;27399;51.516;13.670;2023-03-22T12:10:38;99880.34;;;17.34;62.04
41712;BME280;27399;51.516;13.670;2023-03-22T12:16:23;99887.00;;;17.65;61.84
41712;BME280;27399;51.516;13.670;2023-03-22T12:19:05;99876.88;;;17.70;61.92
41712;BME280;27399;51.516;13.670;2023-03-22T12:21:40;99876.66;;;17.94;61.11
41712;BME280;27399;51.516;13.670;2023-03-22T12:24:34;99868.81;;;18.08;61.39
41712;BME280;27399;51.516;13.670;2023-03-22T12:27:03;99880.34;;;18.49;62.14
41712;BME280;27399;51.516;13.670;2023-03-22T12:29:35;99860.09;;;18.21;61.77
41712;BME280;27399;51.516;13.670;2023-03-22T12:32:25;99869.31;;;18.17;61.58
41712;BME280;27399;51.516;13.670;2023-03-22T12:34:53;99873.66;;;18.38;61.83
41712;BME280;27399;51.516;13.670;2023-03-22T12:37:25;99876.00;;;18.27;62.01
41712;BME280;27399;51.516;13.670;2023-03-22T12:40:00;99869.88;;;17.85;61.34
41712;BME280;27399;51.516;13.670;2023-03-22T12:42:34;99859.97;;;17.86;62.09
41712;BME280;27399;51.516;13.670;2023-03-22T12:45:11;99856.72;;;17.98;63.12
41712;BME280;27399;51.516;13.670;2023-03-22T12:47:40;99866.72;;;17.94;62.26
41712;BME280;27399;51.516;13.670;2023-03-22T12:52:45;99848.69;;;17.96;61.29
41712;BME280;27399;51.516;13.670;2023-03-22T12:55:20;99843.88;;;18.03;62.38
41712;BME280;27399;51.516;13.670;2023-03-22T12:57:48;99841.91;;;18.07;62.54
41712;BME280;27399;51.516;13.670;2023-03-22T13:00:18;99835.03;;;18.19;62.10
41712;BME280;27399;51.516;13.670;2023-03-22T13:05:40;99816.22;;;18.17;61.59
41712;BME280;27399;51.516;13.670;2023-03-22T13:08:06;99809.81;;;18.37;62.07
41712;BME280;27399;51.516;13.670;2023-03-22T13:14:01;99804.28;;;18.04;59.50
41712;BME280;27399;51.516;13.670;2023-03-22T13:21:15;99815.72;;;17.90;59.28
41712;BME280;27399;51.516;13.670;2023-03-22T13:23:57;99810.84;;;17.79;58.34
41712;BME280;27399;51.516;13.670;2023-03-22T13:26:37;99810.25;;;17.91;58.56
41712;BME280;27399;51.516;13.670;2023-03-22T13:29:16;99788.69;;;17.91;58.45
41712;BME280;27399;51.516;13.670;2023-03-22T13:31:56;99772.09;;;18.18;58.38
41712;BME280;27399;51.516;13.670;2023-03-22T13:34:44;99786.00;;;18.46;57.98
41712;BME280;27399;51.516;13.670;2023-03-22T13:37:34;99779.00;;;18.59;58.13
41712;BME280;27399;51.516;13.670;2023-03-22T13:40:35;99788.53;;;18.66;57.16
41712;BME280;27399;51.516;13.670;2023-03-22T13:43:22;99774.47;;;18.95;57.88
41712;BME280;27399;51.516;13.670;2023-03-22T13:51:26;99760.75;;;19.15;57.31
41712;BME280;27399;51.516;13.670;2023-03-22T13:56:33;99759.47;;;19.39;57.04
41712;BME280;27399;51.516;13.670;2023-03-22T13:59:00;99758.25;;;19.28;56.73
41712;BME280;27399;51.516;13.670;2023-03-22T14:01:30;99764.00;;;19.22;56.31
41712;BME280;27399;51.516;13.670;2023-03-22T14:04:02;99763.25;;;18.85;57.13
41712;BME280;27399;51.516;13.670;2023-03-22T14:06:32;99751.25;;;18.90;56.92
41712;BME280;27399;51.516;13.670;2023-03-22T14:09:02;99751.66;;;19.00;57.40
41712;BME280;27399;51.516;13.670;2023-03-22T14:12:13;99756.13;;;18.66;57.37
41712;BME280;27399;51.516;13.670;2023-03-22T14:14:46;99744.53;;;18.64;57.91
41712;BME280;27399;51.516;13.670;2023-03-22T14:19:49;99747.09;;;18.15;57.88